Fayetteville Regional Grannis Field
KFAY : now visible

Airfield :











YOU CAN JOIN US ON...

 
LOGIN :

Register | Disclaimer

   EN    FR    IT 

 









Legend :    VFR   Marginal VFR   IFR   Intensive IFR   Very Intensive IFR
Visi :
Ceiling :
>= 8 km
>= 3000ft
5 to 8 km
1000 to 3000 ft
1500m to 5 km
500 to 1000 ft
800 to 1500m
200 to 500 ft
< 800m
< 200 ft
Symbols :   Thunderstorms  Fog  Heavy snow  Heavy precipitations  Wind > 20 kt







- Airport Elevation : 189 ft
- IATA code : FAY


KFAY - Fayetteville Regional Grannis Field

CURRENT METAR :
  • 181553Z 20010G18KT 10SM CLR 24/14 A3008 RMK AO2 SLP178 T02440144

EXPIRED METARs :
  • 181453Z 22013KT 10SM CLR 22/15 A3009 RMK AO2 SLP182 T02220150 53009
  • 181353Z 21010KT 10SM CLR 21/15 A3007 RMK AO2 SLP176 T02060150

TAF KFAY
Valid from the 18 at 12:00 until the 19 at 12:00 UTC


181120Z 1812/1912 20005KT P6SM SCT200
FM181500 18012G18KT P6SM FEW030 SCT200
FM182000 18014G20KT P6SM BKN035
FM190200 16012KT P6SM OVC050
FM190900 16010KT P6SM OVC025
KZDC FIR / North America



MET'MAP, your aeronautical weather chart ! - Copyright ORBIFLY December 2007 - Disclaimer

ORBIFLY MET'MAP TEAM :

Programming & Development : Alexandra Zaïnal
Concept & Development : Baudouin d'Aumeries
Co-Development & Prog : Marc-Olivier Méhu
Technical & hardware support : Manuel Goepfert

Contact : metmap@orbifly.com




SOURCES & CREDITS :

   NOAA       Earth
Advisory